createdAt,value
2023-04-18T00:01:40.879Z,48.20
2023-04-18T00:04:18.961Z,47.80
2023-04-18T00:06:53.511Z,47.90
2023-04-18T00:09:37.996Z,48.00
2023-04-18T00:12:13.208Z,48.10
2023-04-18T00:14:47.264Z,48.40
2023-04-18T00:17:24.844Z,48.60
2023-04-18T00:20:02.423Z,48.70
2023-04-18T00:22:36.724Z,49.50
2023-04-18T00:25:23.657Z,49.00
2023-04-18T00:27:57.877Z,49.20
2023-04-18T00:30:32.007Z,49.10
2023-04-18T00:33:06.680Z,49.20
2023-04-18T00:35:41.315Z,49.40
2023-04-18T00:38:16.143Z,49.60
2023-04-18T00:40:51.501Z,49.80
2023-04-18T00:43:26.953Z,49.80
2023-04-18T00:46:02.003Z,50.00
2023-04-18T00:48:36.357Z,49.90
2023-04-18T00:51:15.543Z,50.20
2023-04-18T00:53:49.744Z,50.50
2023-04-18T00:56:28.044Z,50.50
2023-04-18T00:59:01.822Z,50.70
2023-04-18T01:01:38.209Z,50.50
2023-04-18T01:04:12.668Z,50.70
2023-04-18T01:06:47.067Z,50.80
2023-04-18T01:09:22.775Z,50.80
2023-04-18T01:11:58.387Z,50.90
2023-04-18T01:14:32.836Z,51.00
2023-04-18T01:17:11.041Z,51.10
2023-04-18T01:19:47.147Z,51.20
2023-04-18T01:22:21.966Z,51.00
2023-04-18T01:24:57.718Z,51.40
2023-04-18T01:27:31.388Z,51.40
2023-04-18T01:30:05.789Z,51.20
2023-04-18T01:32:40.131Z,51.60
2023-04-18T01:35:14.035Z,51.70
2023-04-18T01:37:48.108Z,51.90
2023-04-18T01:40:27.098Z,51.90
2023-04-18T01:43:02.684Z,51.90
2023-04-18T01:45:37.000Z,52.00
2023-04-18T01:48:11.381Z,51.90
2023-04-18T01:50:45.887Z,52.20
2023-04-18T01:53:20.481Z,52.10
2023-04-18T01:56:01.485Z,52.20
2023-04-18T01:58:35.424Z,52.30
2023-04-18T02:01:10.241Z,52.30
2023-04-18T02:03:44.364Z,52.40
2023-04-18T02:06:19.488Z,52.50
2023-04-18T02:08:53.191Z,52.30
2023-04-18T02:11:29.800Z,52.40
2023-04-18T02:14:04.765Z,52.60
2023-04-18T02:16:39.145Z,52.50
2023-04-18T02:19:15.790Z,52.70
2023-04-18T02:21:50.120Z,52.60
2023-04-18T02:24:27.434Z,52.70
2023-04-18T02:27:02.646Z,52.60
2023-04-18T02:29:36.750Z,52.70
2023-04-18T02:32:13.313Z,52.80
2023-04-18T02:34:47.801Z,52.90
2023-04-18T02:37:26.819Z,53.00
2023-04-18T02:40:00.448Z,53.00
2023-04-18T02:42:36.597Z,53.00
2023-04-18T02:45:11.872Z,53.00
2023-04-18T02:47:55.423Z,53.20
2023-04-18T02:50:30.738Z,53.00
2023-04-18T02:53:04.893Z,53.10
2023-04-18T02:55:39.606Z,53.20
2023-04-18T02:58:14.945Z,53.20
2023-04-18T03:00:50.604Z,53.60
2023-04-18T03:03:25.659Z,53.30
2023-04-18T03:06:00.562Z,53.30
2023-04-18T03:08:34.639Z,53.40
2023-04-18T03:11:08.797Z,53.50
2023-04-18T03:13:44.549Z,53.50
2023-04-18T03:16:18.693Z,53.60
2023-04-18T03:18:52.680Z,53.40
2023-04-18T03:21:31.522Z,53.80
2023-04-18T03:24:05.944Z,53.70
2023-04-18T03:26:42.837Z,53.80
2023-04-18T03:29:18.511Z,53.30
2023-04-18T03:31:55.483Z,54.00
2023-04-18T03:34:32.437Z,54.10
2023-04-18T03:37:06.164Z,54.00
2023-04-18T03:39:41.077Z,54.10
2023-04-18T03:42:15.431Z,54.00
2023-04-18T03:45:00.878Z,53.90
2023-04-18T03:47:35.195Z,53.70
2023-04-18T03:50:12.993Z,54.10
2023-04-18T03:52:49.601Z,54.30
2023-04-18T03:55:23.401Z,54.20
2023-04-18T03:57:58.561Z,54.30
2023-04-18T04:00:34.290Z,54.40
2023-04-18T04:03:09.059Z,54.40
2023-04-18T04:05:44.250Z,54.50
2023-04-18T04:08:18.568Z,54.60
2023-04-18T04:10:55.377Z,54.70
2023-04-18T04:13:30.434Z,54.60
2023-04-18T04:16:09.078Z,54.30
2023-04-18T04:18:45.527Z,55.10
2023-04-18T04:21:21.125Z,54.80
2023-04-18T04:23:55.201Z,55.00
2023-04-18T04:26:31.137Z,55.00
2023-04-18T04:29:05.398Z,55.20
2023-04-18T04:31:43.873Z,55.20
2023-04-18T04:34:18.200Z,55.20
2023-04-18T04:36:52.594Z,55.50
2023-04-18T04:39:26.962Z,55.50
2023-04-18T04:42:01.894Z,55.60
2023-04-18T04:44:41.735Z,55.60
2023-04-18T04:47:17.213Z,55.70
2023-04-18T04:49:51.423Z,55.80
2023-04-18T04:52:25.427Z,55.90
2023-04-18T04:54:59.270Z,55.90
2023-04-18T04:57:33.228Z,55.90
2023-04-18T05:00:29.973Z,55.90
2023-04-18T05:03:06.004Z,55.90
2023-04-18T05:05:40.110Z,56.00
2023-04-18T05:08:15.871Z,56.00
2023-04-18T05:10:50.465Z,56.10
2023-04-18T05:13:24.393Z,56.00
2023-04-18T05:16:01.598Z,56.00
2023-04-18T05:18:39.386Z,56.10
2023-04-18T05:21:13.694Z,56.10
2023-04-18T05:23:48.031Z,56.00
2023-04-18T05:26:24.723Z,56.00
2023-04-18T05:28:58.690Z,56.00
2023-04-18T05:31:32.430Z,56.20
2023-04-18T05:34:08.083Z,56.30
2023-04-18T05:36:42.949Z,56.20
2023-04-18T05:39:17.096Z,56.50
2023-04-18T05:41:50.992Z,56.50
2023-04-18T05:44:25.040Z,56.50
2023-04-18T05:46:59.245Z,56.40
2023-04-18T05:49:35.167Z,56.50
2023-04-18T05:52:09.092Z,56.50
2023-04-18T05:54:45.857Z,56.30
2023-04-18T05:57:23.254Z,56.10
2023-04-18T06:00:06.196Z,56.30
2023-04-18T06:02:40.951Z,56.10
2023-04-18T06:05:19.562Z,56.20
2023-04-18T06:07:54.387Z,56.40
2023-04-18T06:10:28.390Z,56.20
2023-04-18T06:13:02.404Z,56.20
2023-04-18T06:15:37.548Z,56.00
2023-04-18T06:18:14.210Z,56.30
2023-04-18T06:20:52.024Z,56.50
2023-04-18T06:23:26.151Z,56.40
2023-04-18T06:26:00.837Z,56.70
2023-04-18T06:28:38.234Z,56.30
2023-04-18T06:31:13.171Z,56.60
2023-04-18T06:33:54.675Z,56.60
2023-04-18T06:36:32.217Z,56.70
2023-04-18T06:39:06.475Z,56.80
2023-04-18T06:41:40.772Z,56.80
2023-04-18T06:44:14.893Z,56.80
2023-04-18T06:46:51.990Z,56.50
2023-04-18T06:49:26.709Z,56.70
2023-04-18T06:52:02.683Z,56.90
2023-04-18T06:54:36.788Z,57.00
2023-04-18T06:57:11.421Z,56.90
2023-04-18T06:59:46.006Z,56.90
2023-04-18T07:02:20.431Z,57.00
2023-04-18T07:04:54.148Z,57.00
2023-04-18T07:07:29.981Z,57.10
2023-04-18T07:10:04.521Z,57.10
2023-04-18T07:12:41.160Z,57.10
2023-04-18T07:15:20.933Z,57.30
2023-04-18T07:17:55.390Z,57.30
2023-04-18T07:20:29.615Z,57.80
2023-04-18T07:23:05.409Z,57.30
2023-04-18T07:25:39.621Z,57.20
2023-04-18T07:28:13.848Z,57.20
2023-04-18T07:30:48.477Z,57.10
2023-04-18T07:33:22.311Z,57.10
2023-04-18T07:35:58.757Z,57.10
2023-04-18T07:38:36.124Z,57.20
2023-04-18T07:41:10.269Z,57.10
2023-04-18T07:43:46.834Z,57.10
2023-04-18T07:46:20.516Z,57.50
2023-04-18T07:48:54.437Z,57.00
2023-04-18T07:51:31.855Z,56.90
2023-04-18T07:54:11.780Z,57.00
2023-04-18T07:56:45.998Z,56.80
2023-04-18T07:59:20.009Z,56.90
2023-04-18T08:01:54.556Z,56.60
2023-04-18T08:04:30.146Z,56.90
2023-04-18T08:07:09.521Z,56.90
2023-04-18T08:09:45.090Z,57.20
2023-04-18T08:12:19.474Z,57.30
2023-04-18T08:14:53.544Z,57.50
2023-04-18T08:17:39.462Z,57.30
2023-04-18T08:20:21.022Z,57.10
2023-04-18T08:25:33.883Z,57.00
2023-04-18T08:28:08.013Z,57.30
2023-04-18T08:30:43.280Z,57.20
2023-04-18T08:33:17.195Z,57.20
2023-04-18T08:35:52.137Z,57.00
2023-04-18T08:38:28.120Z,57.00
2023-04-18T08:41:03.567Z,56.90
2023-04-18T08:43:39.566Z,56.90
2023-04-18T08:46:13.518Z,56.80
2023-04-18T08:48:51.776Z,56.70
2023-04-18T08:51:26.575Z,56.70
2023-04-18T08:54:04.774Z,56.60
2023-04-18T08:56:41.021Z,56.50
2023-04-18T08:59:15.324Z,56.30
2023-04-18T09:02:05.527Z,56.30
2023-04-18T09:04:41.139Z,56.50
2023-04-18T09:07:20.033Z,56.40
2023-04-18T09:09:57.542Z,56.50
2023-04-18T09:12:35.019Z,56.60
2023-04-18T09:15:14.328Z,56.60
2023-04-18T09:17:51.905Z,56.60
2023-04-18T09:20:35.246Z,56.60
2023-04-18T09:23:11.724Z,56.70
2023-04-18T09:25:52.572Z,56.80
2023-04-18T09:28:30.953Z,56.80
2023-04-18T09:31:12.315Z,57.00
2023-04-18T09:33:56.921Z,56.90
2023-04-18T09:36:32.651Z,56.90
2023-04-18T09:39:06.651Z,57.00
2023-04-18T09:41:41.226Z,56.70
2023-04-18T09:44:20.507Z,57.50
2023-04-18T09:46:54.787Z,57.10
2023-04-18T09:49:29.685Z,57.10
2023-04-18T09:52:09.609Z,57.20
2023-04-18T09:54:46.556Z,57.30
2023-04-18T09:57:22.588Z,57.40
2023-04-18T10:00:10.665Z,57.40
2023-04-18T10:02:52.836Z,57.60
2023-04-18T10:05:29.029Z,57.70
2023-04-18T10:08:04.691Z,57.50
2023-04-18T10:10:39.200Z,57.30
2023-04-18T10:13:15.206Z,57.20
2023-04-18T10:15:55.680Z,57.20
2023-04-18T10:18:29.673Z,57.10
2023-04-18T10:21:05.034Z,56.90
2023-04-18T10:23:55.068Z,57.50
2023-04-18T10:26:51.084Z,57.20
2023-04-18T10:29:50.770Z,57.20
2023-04-18T10:32:26.215Z,57.50
2023-04-18T10:35:02.232Z,57.10
2023-04-18T10:37:35.883Z,57.30
2023-04-18T10:40:11.232Z,57.30
2023-04-18T10:43:03.382Z,57.60
2023-04-18T10:45:37.098Z,57.70
2023-04-18T10:48:30.397Z,57.50
2023-04-18T10:51:22.145Z,57.20
2023-04-18T10:54:01.236Z,57.10
2023-04-18T10:56:39.444Z,56.90
2023-04-18T10:59:14.322Z,56.70
2023-04-18T11:01:53.160Z,56.50
2023-04-18T11:04:32.592Z,56.20
2023-04-18T11:07:07.577Z,56.10
2023-04-18T11:09:41.323Z,55.80
2023-04-18T11:12:15.832Z,55.50
2023-04-18T11:14:52.945Z,55.50
2023-04-18T11:17:32.519Z,55.40
2023-04-18T11:20:11.986Z,55.30
2023-04-18T11:22:48.830Z,55.30
2023-04-18T11:25:27.360Z,55.30
2023-04-18T11:28:03.170Z,55.20
2023-04-18T11:30:39.309Z,55.00
2023-04-18T11:33:14.598Z,54.90
2023-04-18T11:35:50.005Z,54.80
2023-04-18T11:38:31.584Z,54.60
2023-04-18T11:41:06.503Z,54.70
2023-04-18T11:43:48.397Z,54.70
2023-04-18T11:46:22.568Z,55.00
2023-04-18T11:48:59.697Z,55.20
2023-04-18T11:51:38.985Z,55.10
2023-04-18T11:54:41.523Z,55.10
2023-04-18T11:57:24.732Z,54.70
2023-04-18T12:00:02.278Z,54.60
2023-04-18T12:02:44.122Z,54.40
2023-04-18T12:05:28.051Z,54.10
2023-04-18T12:08:20.743Z,53.70
2023-04-18T12:10:56.463Z,53.70
2023-04-18T12:13:34.578Z,53.90
2023-04-18T12:16:15.088Z,53.80
2023-04-18T12:18:51.033Z,54.00
2023-04-18T12:21:27.472Z,54.10
2023-04-18T12:24:25.265Z,54.30
2023-04-18T12:26:59.601Z,54.50
2023-04-18T12:29:33.550Z,54.40
2023-04-18T12:32:22.137Z,53.60
2023-04-18T12:35:02.424Z,53.00
2023-04-18T12:37:38.110Z,53.20
2023-04-18T12:40:15.089Z,53.00
2023-04-18T12:42:50.536Z,52.60
2023-04-18T12:45:28.446Z,52.80
2023-04-18T12:48:02.291Z,52.80
2023-04-18T12:50:39.757Z,52.30
2023-04-18T12:53:13.732Z,52.20
2023-04-18T12:55:48.840Z,52.60
2023-04-18T12:58:22.521Z,51.90
2023-04-18T13:00:58.189Z,52.20
2023-04-18T13:03:33.786Z,52.30
2023-04-18T13:06:08.923Z,52.40
2023-04-18T13:08:43.222Z,52.90
2023-04-18T13:11:28.763Z,52.20
2023-04-18T13:14:02.329Z,51.70
2023-04-18T13:16:36.361Z,51.50
2023-04-18T13:19:10.457Z,51.30
2023-04-18T13:21:47.234Z,51.30
2023-04-18T13:24:23.442Z,51.20
2023-04-18T13:26:58.516Z,51.10
2023-04-18T13:29:32.555Z,50.90
2023-04-18T13:32:13.732Z,51.20
2023-04-18T13:34:49.140Z,51.90
2023-04-18T13:37:25.993Z,51.40
2023-04-18T13:40:02.491Z,51.10
2023-04-18T13:42:40.334Z,51.30
2023-04-18T13:45:25.201Z,51.20
2023-04-18T13:47:59.203Z,51.10
2023-04-18T13:50:34.029Z,51.20
2023-04-18T13:53:07.904Z,51.50
2023-04-18T13:55:41.748Z,51.40
2023-04-18T13:58:19.747Z,51.40
2023-04-18T14:00:54.715Z,51.80
2023-04-18T14:03:29.555Z,51.40
2023-04-18T14:06:04.437Z,51.20
2023-04-18T14:08:49.353Z,51.10
2023-04-18T14:11:28.775Z,51.60
2023-04-18T14:14:04.348Z,50.90
2023-04-18T14:16:38.068Z,50.60
2023-04-18T14:19:15.580Z,50.30
2023-04-18T14:21:52.999Z,50.20
2023-04-18T14:24:26.965Z,50.40
2023-04-18T14:27:02.453Z,50.20
2023-04-18T14:29:38.127Z,50.10
2023-04-18T14:32:12.564Z,50.10
2023-04-18T14:34:48.776Z,50.00
2023-04-18T14:37:22.486Z,49.80
2023-04-18T14:39:56.343Z,49.50
2023-04-18T14:42:30.638Z,49.40
2023-04-18T14:45:08.802Z,49.40
2023-04-18T14:47:42.609Z,49.40
2023-04-18T14:50:17.192Z,49.40
2023-04-18T14:52:50.653Z,49.40
2023-04-18T14:55:26.371Z,49.30
2023-04-18T14:58:00.351Z,49.30
2023-04-18T15:00:35.829Z,49.20
2023-04-18T15:03:11.362Z,49.20
2023-04-18T15:05:46.716Z,49.10
2023-04-18T15:08:20.783Z,49.00
2023-04-18T15:10:54.620Z,49.00
2023-04-18T15:13:28.195Z,49.10
2023-04-18T15:16:04.175Z,49.00
2023-04-18T15:18:38.160Z,49.10
2023-04-18T15:21:12.180Z,49.10
2023-04-18T15:23:46.313Z,49.40
2023-04-18T15:26:20.154Z,49.40
2023-04-18T15:28:55.900Z,49.50
2023-04-18T15:31:31.402Z,49.40
2023-04-18T15:34:09.790Z,49.20
2023-04-18T15:36:44.617Z,49.30
2023-04-18T15:39:25.203Z,49.20
2023-04-18T15:41:59.416Z,49.10
2023-04-18T15:44:33.494Z,49.10
2023-04-18T15:47:08.736Z,49.00
2023-04-18T15:49:42.531Z,48.90
2023-04-18T15:52:18.142Z,49.00
2023-04-18T15:54:53.605Z,49.10
2023-04-18T15:57:29.358Z,48.90
2023-04-18T16:00:05.674Z,49.00
2023-04-18T16:02:40.983Z,49.10
2023-04-18T16:05:17.793Z,49.00
2023-04-18T16:07:52.451Z,49.20
2023-04-18T16:10:26.468Z,49.00
2023-04-18T16:13:00.663Z,49.00
2023-04-18T16:15:41.747Z,48.80
2023-04-18T16:18:17.389Z,48.80
2023-04-18T16:20:54.016Z,48.80
2023-04-18T16:23:28.552Z,48.40
2023-04-18T16:26:10.307Z,48.60
2023-04-18T16:28:44.241Z,48.60
2023-04-18T16:31:17.904Z,48.50
2023-04-18T16:33:54.965Z,48.20
2023-04-18T16:36:29.625Z,48.10
2023-04-18T16:39:04.873Z,48.50
2023-04-18T16:41:39.120Z,48.60
2023-04-18T16:44:13.415Z,48.60
2023-04-18T16:46:49.344Z,48.70
2023-04-18T16:49:26.929Z,48.50
2023-04-18T16:52:02.504Z,48.50
2023-04-18T16:54:36.202Z,48.60
2023-04-18T16:57:14.644Z,48.60
2023-04-18T16:59:48.545Z,48.60
2023-04-18T17:02:22.646Z,48.60
2023-04-18T17:05:01.597Z,48.70
2023-04-18T17:07:36.729Z,48.40
2023-04-18T17:10:12.610Z,48.40
2023-04-18T17:12:49.511Z,48.60
2023-04-18T17:15:23.713Z,48.10
2023-04-18T17:18:00.471Z,48.30
2023-04-18T17:20:36.446Z,48.20
2023-04-18T17:23:11.786Z,48.10
2023-04-18T17:25:46.724Z,48.00
2023-04-18T17:28:21.535Z,48.00
2023-04-18T17:30:58.568Z,48.00
2023-04-18T17:33:32.452Z,47.90
2023-04-18T17:36:09.928Z,48.10
2023-04-18T17:38:48.948Z,48.10
2023-04-18T17:41:23.547Z,48.20
2023-04-18T17:43:58.127Z,48.30
2023-04-18T17:46:35.712Z,48.30
2023-04-18T17:49:10.074Z,48.50
2023-04-18T17:51:49.865Z,48.50
2023-04-18T17:54:23.831Z,48.60
2023-04-18T17:56:58.343Z,48.70
2023-04-18T17:59:37.605Z,48.80
2023-04-18T18:02:11.945Z,48.70
2023-04-18T18:04:48.493Z,49.00
2023-04-18T18:07:23.607Z,49.00
2023-04-18T18:09:57.445Z,48.80
2023-04-18T18:12:39.033Z,49.00
2023-04-18T18:15:15.092Z,49.20
2023-04-18T18:17:55.311Z,49.30
2023-04-18T18:20:34.698Z,49.40
2023-04-18T18:23:28.998Z,49.30
2023-04-18T18:26:07.202Z,49.20
2023-04-18T18:28:41.105Z,49.50
2023-04-18T18:31:17.885Z,49.50
2023-04-18T18:33:59.076Z,49.60
2023-04-18T18:36:33.048Z,49.70
2023-04-18T18:39:08.339Z,49.80
2023-04-18T18:41:41.973Z,49.80
2023-04-18T18:44:17.570Z,49.90
2023-04-18T18:46:54.350Z,49.90
2023-04-18T18:49:28.618Z,49.90
2023-04-18T18:52:04.196Z,50.00
2023-04-18T18:54:39.600Z,50.00
2023-04-18T18:57:13.320Z,50.10
2023-04-18T18:59:47.010Z,50.20
2023-04-18T19:02:21.185Z,50.20
2023-04-18T19:04:55.212Z,50.20
2023-04-18T19:07:36.038Z,50.30
2023-04-18T19:10:12.882Z,50.10
2023-04-18T19:12:46.607Z,50.40
2023-04-18T19:15:20.339Z,50.40
2023-04-18T19:17:54.190Z,50.50
2023-04-18T19:20:31.114Z,50.60
2023-04-18T19:23:08.001Z,50.60
2023-04-18T19:25:43.436Z,50.80
2023-04-18T19:28:18.812Z,50.80
2023-04-18T19:30:54.006Z,50.70
2023-04-18T19:33:28.409Z,50.80
2023-04-18T19:36:02.284Z,50.80
2023-04-18T19:38:36.113Z,50.90
2023-04-18T19:41:11.857Z,51.00
2023-04-18T19:43:45.615Z,51.00
2023-04-18T19:46:19.448Z,51.10
2023-04-18T19:48:58.855Z,51.00
2023-04-18T19:51:32.867Z,51.00
2023-04-18T19:54:07.072Z,51.10
2023-04-18T19:56:42.824Z,51.30
2023-04-18T19:59:16.914Z,51.20
2023-04-18T20:01:50.508Z,51.30
2023-04-18T20:04:25.841Z,51.40
2023-04-18T20:07:02.945Z,51.40
2023-04-18T20:09:36.901Z,51.50
2023-04-18T20:12:12.606Z,51.50
2023-04-18T20:14:46.534Z,51.60
2023-04-18T20:17:23.192Z,51.60
2023-04-18T20:20:11.459Z,51.70
2023-04-18T20:22:47.659Z,51.80
2023-04-18T20:25:21.779Z,51.80
2023-04-18T20:27:57.553Z,51.90
2023-04-18T20:30:34.348Z,51.90
2023-04-18T20:33:08.394Z,52.10
2023-04-18T20:35:42.188Z,52.10
2023-04-18T20:38:16.146Z,52.20
2023-04-18T20:40:53.367Z,52.20
2023-04-18T20:43:29.290Z,52.40
2023-04-18T20:46:03.074Z,52.50
2023-04-18T20:48:36.569Z,52.50
2023-04-18T20:51:10.697Z,52.50
2023-04-18T20:53:44.299Z,52.50
2023-04-18T20:56:18.405Z,52.60
2023-04-18T20:58:53.838Z,52.50
2023-04-18T21:01:28.535Z,52.70
2023-04-18T21:04:11.961Z,52.60
2023-04-18T21:06:48.567Z,52.50
2023-04-18T21:09:22.479Z,53.10
2023-04-18T21:11:57.973Z,52.80
2023-04-18T21:14:33.494Z,52.90
2023-04-18T21:17:10.983Z,53.00
2023-04-18T21:19:47.937Z,52.90
2023-04-18T21:22:27.708Z,53.00
2023-04-18T21:25:04.053Z,53.00
2023-04-18T21:27:39.355Z,53.10
2023-04-18T21:30:19.340Z,53.10
2023-04-18T21:32:53.688Z,52.80
2023-04-18T21:35:29.829Z,53.10
2023-04-18T21:38:04.060Z,53.10
2023-04-18T21:40:39.434Z,53.20
2023-04-18T21:43:13.194Z,53.10
2023-04-18T21:45:52.677Z,53.20
2023-04-18T21:48:28.538Z,53.30
2023-04-18T21:51:02.510Z,53.30
2023-04-18T21:53:41.217Z,53.30
2023-04-18T21:56:19.098Z,53.40
2023-04-18T21:58:53.127Z,53.40
2023-04-18T22:01:34.604Z,53.40
2023-04-18T22:04:12.496Z,53.40
2023-04-18T22:06:46.550Z,53.30
2023-04-18T22:09:20.414Z,53.60
2023-04-18T22:12:02.863Z,53.70
2023-04-18T22:14:40.704Z,53.70
2023-04-18T22:17:16.184Z,53.20
2023-04-18T22:19:53.642Z,53.70
2023-04-18T22:22:28.375Z,53.50
2023-04-18T22:25:07.834Z,53.80
2023-04-18T22:27:46.475Z,53.90
2023-04-18T22:30:20.683Z,54.10
2023-04-18T22:32:56.668Z,53.80
2023-04-18T22:35:30.901Z,54.00
2023-04-18T22:38:06.869Z,54.10
2023-04-18T22:40:40.603Z,54.10
2023-04-18T22:43:14.509Z,54.20
2023-04-18T22:45:48.394Z,54.20
2023-04-18T22:48:23.749Z,54.20
2023-04-18T22:50:57.502Z,54.30
2023-04-18T22:53:31.420Z,54.30
2023-04-18T22:56:05.379Z,54.40
2023-04-18T22:58:39.140Z,54.30
2023-04-18T23:01:12.999Z,54.40
2023-04-18T23:03:50.304Z,54.50
2023-04-18T23:06:24.993Z,55.10
2023-04-18T23:08:58.439Z,54.60
2023-04-18T23:11:32.287Z,54.70
2023-04-18T23:14:06.840Z,54.80
2023-04-18T23:16:42.560Z,54.70
2023-04-18T23:19:18.714Z,54.80
2023-04-18T23:21:55.615Z,54.80
2023-04-18T23:24:29.731Z,55.00
2023-04-18T23:27:04.317Z,55.00
2023-04-18T23:29:40.135Z,55.20
2023-04-18T23:32:16.766Z,55.20
2023-04-18T23:34:52.288Z,55.10
2023-04-18T23:37:26.303Z,55.30
2023-04-18T23:40:01.063Z,55.40
2023-04-18T23:42:39.350Z,55.50
2023-04-18T23:45:14.279Z,55.50
2023-04-18T23:47:48.119Z,55.50
2023-04-18T23:50:23.327Z,55.50
2023-04-18T23:52:57.894Z,55.70
2023-04-18T23:55:32.258Z,55.70
2023-04-18T23:58:06.272Z,55.70
